Time,TemperatureF,DewpointF,PressureIn,WindDirection,WindDirectionDegrees,WindSpeedMPH,WindSpeedGustMPH,Humidity,HourlyPrecipIn,Conditions,Clouds,dailyrainin,SoftwareType,DateUTC
2013-04-08 00:00:00,54.7,52.1,30.15,South,180,0.0,0.0,91,0.00,,,0.00,Wunderground v.1.15,2013-04-08 04:00:00,
2013-04-08 00:05:00,55.2,52.6,30.16,SE,137,1.0,3.0,91,0.00,,,0.00,Wunderground v.1.15,2013-04-08 04:05:00,
2013-04-08 00:15:00,57.0,53.5,30.16,SSE,155,3.0,3.0,88,0.00,,,0.00,Wunderground v.1.15,2013-04-08 04:15:00,
2013-04-08 00:20:00,57.3,53.5,30.16,SSE,153,3.0,4.0,87,0.00,,,0.00,Wunderground v.1.15,2013-04-08 04:20:00,
2013-04-08 00:25:00,57.8,54.0,30.15,SSE,156,3.0,4.0,87,0.00,,,0.00,Wunderground v.1.15,2013-04-08 04:25:00,
2013-04-08 00:30:00,58.4,54.2,30.15,SSE,161,4.0,6.0,86,0.00,,,0.00,Wunderground v.1.15,2013-04-08 04:30:00,
2013-04-08 00:40:00,59.4,54.9,30.15,South,184,5.0,6.0,85,0.00,,,0.00,Wunderground v.1.15,2013-04-08 04:40:00,
2013-04-08 00:50:00,60.2,55.0,30.15,South,179,6.0,6.0,83,0.00,,,0.00,Wunderground v.1.15,2013-04-08 04:50:00,
2013-04-08 00:55:00,60.5,55.3,30.15,South,169,6.0,6.0,83,0.00,,,0.00,Wunderground v.1.15,2013-04-08 04:55:00,
2013-04-08 01:00:00,60.6,55.4,30.15,South,179,6.0,6.0,83,0.00,,,0.00,Wunderground v.1.15,2013-04-08 05:00:00,
2013-04-08 01:10:00,60.9,55.4,30.15,SSE,164,7.0,9.0,82,0.00,,,0.00,Wunderground v.1.15,2013-04-08 05:10:00,
2013-04-08 01:15:00,61.1,55.6,30.15,SSE,155,7.0,9.0,82,0.00,,,0.00,Wunderground v.1.15,2013-04-08 05:15:00,
2013-04-08 01:20:00,61.0,55.5,30.15,SSE,162,7.0,7.0,82,0.00,,,0.00,Wunderground v.1.15,2013-04-08 05:20:00,
2013-04-08 01:30:00,60.9,55.4,30.15,South,175,6.0,8.0,82,0.00,,,0.00,Wunderground v.1.15,2013-04-08 05:30:00,
2013-04-08 01:35:00,60.8,55.3,30.15,SSE,165,6.0,8.0,82,0.00,,,0.00,Wunderground v.1.15,2013-04-08 05:35:00,
2013-04-08 01:45:00,60.5,55.0,30.16,SSE,163,5.0,7.0,82,0.00,,,0.00,Wunderground v.1.15,2013-04-08 05:45:00,
2013-04-08 01:50:00,60.4,55.2,30.16,SSE,164,5.0,5.0,83,0.00,,,0.00,Wunderground v.1.15,2013-04-08 05:50:00,
2013-04-08 02:00:00,60.1,54.9,30.16,SSE,157,5.0,5.0,83,0.00,,,0.00,Wunderground v.1.15,2013-04-08 06:00:00,
2013-04-08 02:05:00,59.9,55.1,30.16,South,177,5.0,5.0,84,0.00,,,0.00,Wunderground v.1.15,2013-04-08 06:05:00,
2013-04-08 02:15:00,59.6,54.8,30.15,SSE,158,4.0,5.0,84,0.00,,,0.00,Wunderground v.1.15,2013-04-08 06:15:00,
2013-04-08 02:25:00,59.0,54.5,30.15,South,176,3.0,4.0,85,0.00,,,0.00,Wunderground v.1.15,2013-04-08 06:25:00,
2013-04-08 02:30:00,59.0,54.8,30.15,SSE,165,3.0,3.0,86,0.00,,,0.00,Wunderground v.1.15,2013-04-08 06:30:00,
2013-04-08 02:40:00,58.6,54.4,30.15,SSE,164,3.0,3.0,86,0.00,,,0.00,Wunderground v.1.15,2013-04-08 06:40:00,
2013-04-08 02:50:00,58.1,54.2,30.15,South,173,2.0,2.0,87,0.00,,,0.00,Wunderground v.1.15,2013-04-08 06:50:00,
2013-04-08 02:55:00,57.9,54.4,30.15,South,172,2.0,2.0,88,0.00,,,0.00,Wunderground v.1.15,2013-04-08 06:55:00,
2013-04-08 03:00:00,57.8,54.3,30.15,South,173,2.0,3.0,88,0.00,,,0.00,Wunderground v.1.15,2013-04-08 07:00:00,
2013-04-08 03:05:00,57.8,54.3,30.15,South,173,2.0,3.0,88,0.00,,,0.00,Wunderground v.1.15,2013-04-08 07:05:00,
2013-04-08 03:15:00,57.6,54.4,30.14,South,175,2.0,2.0,89,0.00,,,0.00,Wunderground v.1.15,2013-04-08 07:15:00,
2013-04-08 03:20:00,57.5,54.3,30.15,South,175,2.0,2.0,89,0.00,,,0.00,Wunderground v.1.15,2013-04-08 07:20:00,
2013-04-08 03:25:00,57.5,54.3,30.15,South,175,2.0,2.0,89,0.00,,,0.00,Wunderground v.1.15,2013-04-08 07:25:00,
2013-04-08 03:35:00,57.3,54.4,30.15,South,189,1.0,1.0,90,0.00,,,0.00,Wunderground v.1.15,2013-04-08 07:35:00,
2013-04-08 03:40:00,57.1,54.2,30.15,South,189,0.0,0.0,90,0.00,,,0.00,Wunderground v.1.15,2013-04-08 07:40:00,
2013-04-08 03:45:00,57.1,54.2,30.15,South,188,0.0,1.0,90,0.00,,,0.00,Wunderground v.1.15,2013-04-08 07:45:00,
2013-04-08 03:55:00,57.1,54.2,30.14,South,188,1.0,2.0,90,0.00,,,0.00,Wunderground v.1.15,2013-04-08 07:55:00,
2013-04-08 04:05:00,57.0,54.4,30.14,South,187,1.0,2.0,91,0.00,,,0.00,Wunderground v.1.15,2013-04-08 08:05:00,
2013-04-08 04:10:00,56.9,54.3,30.14,SSE,151,2.0,2.0,91,0.00,,,0.00,Wunderground v.1.15,2013-04-08 08:10:00,
2013-04-08 04:20:00,56.7,54.1,30.14,SSE,152,2.0,2.0,91,0.00,,,0.00,Wunderground v.1.15,2013-04-08 08:20:00,
2013-04-08 04:30:00,56.8,54.2,30.14,South,169,2.0,2.0,91,0.00,,,0.00,Wunderground v.1.15,2013-04-08 08:30:00,
2013-04-08 04:35:00,56.9,54.3,30.14,South,188,2.0,2.0,91,0.00,,,0.00,Wunderground v.1.15,2013-04-08 08:35:00,
2013-04-08 04:40:00,57.0,54.4,30.14,SSE,165,3.0,4.0,91,0.00,,,0.00,Wunderground v.1.15,2013-04-08 08:40:00,
2013-04-08 04:50:00,56.7,54.1,30.14,South,175,2.0,3.0,91,0.00,,,0.00,Wunderground v.1.15,2013-04-08 08:50:00,
2013-04-08 04:55:00,56.6,54.0,30.14,South,181,1.0,3.0,91,0.00,,,0.00,Wunderground v.1.15,2013-04-08 08:55:00,
2013-04-08 05:05:00,56.5,54.2,30.15,South,188,2.0,4.0,92,0.00,,,0.00,Wunderground v.1.15,2013-04-08 09:05:00,
2013-04-08 05:10:00,56.7,54.4,30.15,South,180,2.0,2.0,92,0.00,,,0.00,Wunderground v.1.15,2013-04-08 09:10:00,
2013-04-08 05:15:00,56.8,54.5,30.15,South,170,2.0,2.0,92,0.00,,,0.00,Wunderground v.1.15,2013-04-08 09:15:00,
2013-04-08 05:25:00,56.9,54.3,30.15,South,170,1.0,2.0,91,0.00,,,0.00,Wunderground v.1.15,2013-04-08 09:25:00,
2013-04-08 05:35:00,56.9,54.3,30.15,SSE,155,2.0,3.0,91,0.00,,,0.00,Wunderground v.1.15,2013-04-08 09:35:00,
2013-04-08 05:45:00,56.8,54.2,30.15,SSE,155,1.0,2.0,91,0.00,,,0.00,Wunderground v.1.15,2013-04-08 09:45:00,
2013-04-08 05:50:00,56.8,54.2,30.15,SSE,155,1.0,1.0,91,0.00,,,0.00,Wunderground v.1.15,2013-04-08 09:50:00,
2013-04-08 06:00:00,56.8,54.2,30.15,SSE,155,0.0,1.0,91,0.00,,,0.00,Wunderground v.1.15,2013-04-08 10:00:00,
2013-04-08 06:05:00,56.7,54.1,30.16,SSE,155,0.0,1.0,91,0.00,,,0.00,Wunderground v.1.15,2013-04-08 10:05:00,
2013-04-08 06:15:00,56.5,53.9,30.16,SSE,155,0.0,0.0,91,0.00,,,0.00,Wunderground v.1.15,2013-04-08 10:15:00,
2013-04-08 06:25:00,56.1,53.8,30.16,SSE,155,0.0,0.0,92,0.00,,,0.00,Wunderground v.1.15,2013-04-08 10:25:00,
2013-04-08 06:35:00,55.6,53.3,30.16,SSE,155,0.0,0.0,92,0.00,,,0.00,Wunderground v.1.15,2013-04-08 10:35:00,
2013-04-08 06:45:00,55.2,53.2,30.16,SSE,155,0.0,0.0,93,0.00,,,0.00,Wunderground v.1.15,2013-04-08 10:45:00,
2013-04-08 06:50:00,55.1,53.1,30.17,SSE,155,0.0,0.0,93,0.00,,,0.00,Wunderground v.1.15,2013-04-08 10:50:00,
2013-04-08 07:00:00,54.9,52.9,30.17,SSE,155,0.0,0.0,93,0.00,,,0.00,Wunderground v.1.15,2013-04-08 11:00:00,
2013-04-08 07:10:00,55.0,53.3,30.17,SSE,166,0.0,0.0,94,0.00,,,0.00,Wunderground v.1.15,2013-04-08 11:10:00,
2013-04-08 07:15:00,55.0,53.3,30.17,SSE,165,0.0,0.0,94,0.00,,,0.00,Wunderground v.1.15,2013-04-08 11:15:00,
2013-04-08 07:20:00,55.0,53.3,30.17,SSE,157,0.0,0.0,94,0.00,,,0.00,Wunderground v.1.15,2013-04-08 11:20:00,
2013-04-08 07:30:00,55.0,53.3,30.17,SSE,158,1.0,2.0,94,0.00,,,0.00,Wunderground v.1.15,2013-04-08 11:30:00,
2013-04-08 07:35:00,55.3,53.6,30.18,SSE,159,1.0,2.0,94,0.00,,,0.00,Wunderground v.1.15,2013-04-08 11:35:00,
2013-04-08 07:45:00,56.0,54.3,30.18,SSE,168,2.0,2.0,94,0.00,,,0.00,Wunderground v.1.15,2013-04-08 11:45:00,
2013-04-08 07:55:00,56.8,54.8,30.19,South,169,2.0,2.0,93,0.00,,,0.00,Wunderground v.1.15,2013-04-08 11:55:00,
2013-04-08 08:00:00,57.2,54.9,30.19,SSE,163,2.0,4.0,92,0.00,,,0.00,Wunderground v.1.15,2013-04-08 12:00:00,
2013-04-08 08:10:00,57.8,55.2,30.19,South,174,3.0,3.0,91,0.00,,,0.00,Wunderground v.1.15,2013-04-08 12:10:00,
2013-04-08 08:20:00,58.3,55.4,30.19,South,169,3.0,4.0,90,0.00,,,0.00,Wunderground v.1.15,2013-04-08 12:20:00,
2013-04-08 08:30:00,59.0,56.1,30.19,South,169,3.0,3.0,90,0.00,,,0.00,Wunderground v.1.15,2013-04-08 12:30:00,
2013-04-08 08:45:00,59.9,56.3,30.19,SSE,167,4.0,5.0,88,0.00,,,0.00,Wunderground v.1.15,2013-04-08 12:45:00,
2013-04-08 08:50:00,60.4,56.2,30.19,South,171,4.0,4.0,86,0.00,,,0.00,Wunderground v.1.15,2013-04-08 12:50:00,
2013-04-08 09:00:00,61.1,56.6,30.20,South,184,4.0,5.0,85,0.00,,,0.00,Wunderground v.1.15,2013-04-08 13:00:00,
2013-04-08 09:10:00,61.8,56.9,30.20,South,172,4.0,5.0,84,0.00,,,0.00,Wunderground v.1.15,2013-04-08 13:10:00,
2013-04-08 09:20:00,62.7,57.1,30.20,South,182,4.0,4.0,82,0.00,,,0.00,Wunderground v.1.15,2013-04-08 13:20:00,
2013-04-08 09:25:00,63.2,57.3,30.20,SSE,162,4.0,4.0,81,0.00,,,0.00,Wunderground v.1.15,2013-04-08 13:25:00,
2013-04-08 09:30:00,63.8,57.5,30.20,South,184,3.0,3.0,80,0.00,,,0.00,Wunderground v.1.15,2013-04-08 13:30:00,
2013-04-08 09:40:00,64.6,57.2,30.20,West,267,3.0,3.0,77,0.00,,,0.00,Wunderground v.1.15,2013-04-08 13:40:00,
2013-04-08 09:50:00,65.1,56.6,30.21,SSW,195,4.0,4.0,74,0.00,,,0.00,Wunderground v.1.15,2013-04-08 13:50:00,
2013-04-08 09:55:00,65.2,56.7,30.20,South,179,5.0,7.0,74,0.00,,,0.00,Wunderground v.1.15,2013-04-08 13:55:00,
2013-04-08 10:05:00,65.6,56.3,30.21,South,169,5.0,5.0,72,0.00,,,0.00,Wunderground v.1.15,2013-04-08 14:05:00,
2013-04-08 10:15:00,65.9,56.6,30.20,South,175,6.0,6.0,72,0.00,,,0.00,Wunderground v.1.15,2013-04-08 14:15:00,
2013-04-08 10:25:00,67.3,57.6,30.20,South,190,5.0,5.0,71,0.00,,,0.00,Wunderground v.1.15,2013-04-08 14:25:00,
2013-04-08 10:35:00,69.1,57.3,30.20,SSE,155,4.0,5.0,66,0.00,,,0.00,Wunderground v.1.15,2013-04-08 14:35:00,
2013-04-08 10:40:00,70.1,56.9,30.20,SSE,150,4.0,4.0,63,0.00,,,0.00,Wunderground v.1.15,2013-04-08 14:40:00,
2013-04-08 10:45:00,70.3,56.7,30.20,SE,143,5.0,5.0,62,0.00,,,0.00,Wunderground v.1.15,2013-04-08 14:45:00,
2013-04-08 10:55:00,71.0,56.9,30.21,SSE,165,6.0,6.0,61,0.00,,,0.00,Wunderground v.1.15,2013-04-08 14:55:00,
2013-04-08 11:00:00,71.4,56.8,30.21,South,178,6.0,6.0,60,0.00,,,0.00,Wunderground v.1.15,2013-04-08 15:00:00,
2013-04-08 11:05:00,71.9,56.8,30.21,South,180,7.0,7.0,59,0.00,,,0.00,Wunderground v.1.15,2013-04-08 15:05:00,
2013-04-08 11:15:00,72.3,55.2,30.20,SSE,167,8.0,12.0,55,0.00,,,0.00,Wunderground v.1.15,2013-04-08 15:15:00,
2013-04-08 11:20:00,72.9,55.3,30.20,SSW,198,8.0,8.0,54,0.00,,,0.00,Wunderground v.1.15,2013-04-08 15:20:00,
2013-04-08 11:25:00,73.3,55.1,30.20,SW,227,6.0,10.0,53,0.00,,,0.00,Wunderground v.1.15,2013-04-08 15:25:00,
2013-04-08 11:35:00,73.7,56.5,30.20,South,191,6.0,11.0,55,0.00,,,0.00,Wunderground v.1.15,2013-04-08 15:35:00,
2013-04-08 11:40:00,74.1,56.9,30.20,SW,221,5.0,5.0,55,0.00,,,0.00,Wunderground v.1.15,2013-04-08 15:40:00,
2013-04-08 11:50:00,74.6,56.9,30.20,SSE,153,3.0,10.0,54,0.00,,,0.00,Wunderground v.1.15,2013-04-08 15:50:00,
2013-04-08 12:00:00,75.1,56.8,30.19,SSE,149,5.0,5.0,53,0.00,,,0.00,Wunderground v.1.15,2013-04-08 16:00:00,
2013-04-08 12:10:00,75.4,56.5,30.19,SSW,195,7.0,7.0,52,0.00,,,0.00,Wunderground v.1.15,2013-04-08 16:10:00,
2013-04-08 12:15:00,75.2,56.4,30.19,SE,146,7.0,7.0,52,0.00,,,0.00,Wunderground v.1.15,2013-04-08 16:15:00,
2013-04-08 12:20:00,75.3,55.9,30.19,SSE,154,7.0,7.0,51,0.00,,,0.00,Wunderground v.1.15,2013-04-08 16:20:00,
2013-04-08 12:30:00,75.4,56.0,30.19,South,190,5.0,6.0,51,0.00,,,0.00,Wunderground v.1.15,2013-04-08 16:30:00,
2013-04-08 12:35:00,75.3,57.5,30.18,SSE,168,5.0,9.0,54,0.00,,,0.00,Wunderground v.1.15,2013-04-08 16:35:00,
2013-04-08 12:45:00,76.9,55.7,30.18,South,176,7.0,9.0,48,0.00,,,0.00,Wunderground v.1.15,2013-04-08 16:45:00,
2013-04-08 12:55:00,75.8,55.3,30.18,South,190,5.0,7.0,49,0.00,,,0.00,Wunderground v.1.15,2013-04-08 16:55:00,
2013-04-08 13:00:00,75.7,55.7,30.18,SSE,161,4.0,11.0,50,0.00,,,0.00,Wunderground v.1.15,2013-04-08 17:00:00,
2013-04-08 13:10:00,76.4,54.7,30.18,SSE,158,7.0,10.0,47,0.00,,,0.00,Wunderground v.1.15,2013-04-08 17:10:00,
2013-04-08 13:15:00,76.9,56.8,30.17,SE,138,7.0,10.0,50,0.00,,,0.00,Wunderground v.1.15,2013-04-08 17:15:00,
2013-04-08 13:25:00,77.5,55.1,30.17,SW,220,5.0,10.0,46,0.00,,,0.00,Wunderground v.1.15,2013-04-08 17:25:00,
2013-04-08 13:35:00,77.1,55.3,30.17,South,182,8.0,9.0,47,0.00,,,0.00,Wunderground v.1.15,2013-04-08 17:35:00,
2013-04-08 13:40:00,76.9,55.1,30.17,South,189,6.0,6.0,47,0.00,,,0.00,Wunderground v.1.15,2013-04-08 17:40:00,
2013-04-08 13:50:00,76.2,55.6,30.16,SE,146,6.0,6.0,49,0.00,,,0.00,Wunderground v.1.15,2013-04-08 17:50:00,
2013-04-08 13:55:00,76.8,55.0,30.16,South,177,8.0,8.0,47,0.00,,,0.00,Wunderground v.1.15,2013-04-08 17:55:00,
2013-04-08 14:00:00,78.1,56.8,30.16,South,184,6.0,10.0,48,0.00,,,0.00,Wunderground v.1.15,2013-04-08 18:00:00,
2013-04-08 14:05:00,77.3,54.3,30.16,South,189,6.0,10.0,45,0.00,,,0.00,Wunderground v.1.15,2013-04-08 18:05:00,
2013-04-08 14:20:00,79.0,56.5,30.15,SSW,198,5.0,7.0,46,0.00,,,0.00,Wunderground v.1.15,2013-04-08 18:20:00,
2013-04-08 14:30:00,77.5,54.5,30.15,SSE,167,6.0,6.0,45,0.00,,,0.00,Wunderground v.1.15,2013-04-08 18:30:00,
2013-04-08 14:40:00,76.8,55.6,30.15,South,187,8.0,8.0,48,0.00,,,0.00,Wunderground v.1.15,2013-04-08 18:40:00,
2013-04-08 14:45:00,77.4,55.0,30.15,South,182,7.0,8.0,46,0.00,,,0.00,Wunderground v.1.15,2013-04-08 18:45:00,
2013-04-08 14:50:00,77.8,54.1,30.14,SSE,156,5.0,7.0,44,0.00,,,0.00,Wunderground v.1.15,2013-04-08 18:50:00,
2013-04-08 15:00:00,76.8,54.5,30.14,SSW,201,9.0,9.0,46,0.00,,,0.00,Wunderground v.1.15,2013-04-08 19:00:00,
2013-04-08 15:05:00,76.5,54.8,30.14,SSE,163,10.0,10.0,47,0.00,,,0.00,Wunderground v.1.15,2013-04-08 19:05:00,
2013-04-08 15:15:00,76.6,55.4,30.13,SSE,156,4.0,7.0,48,0.00,,,0.00,Wunderground v.1.15,2013-04-08 19:15:00,
2013-04-08 15:20:00,77.9,56.0,30.13,SSW,200,4.0,5.0,47,0.00,,,0.00,Wunderground v.1.15,2013-04-08 19:20:00,
2013-04-08 15:30:00,79.5,55.7,30.12,SSE,149,4.0,6.0,44,0.00,,,0.00,Wunderground v.1.15,2013-04-08 19:30:00,
2013-04-08 15:35:00,79.4,55.0,30.12,SSE,156,5.0,6.0,43,0.00,,,0.00,Wunderground v.1.15,2013-04-08 19:35:00,
2013-04-08 15:40:00,79.6,55.1,30.12,SW,220,5.0,5.0,43,0.00,,,0.00,Wunderground v.1.15,2013-04-08 19:40:00,
2013-04-08 15:55:00,78.0,54.3,30.12,South,180,8.0,8.0,44,0.00,,,0.00,Wunderground v.1.15,2013-04-08 19:55:00,
2013-04-08 16:00:00,79.3,55.5,30.11,SSE,167,6.0,6.0,44,0.00,,,0.00,Wunderground v.1.15,2013-04-08 20:00:00,
2013-04-08 16:05:00,79.7,53.9,30.11,West,276,4.0,6.0,41,0.00,,,0.00,Wunderground v.1.15,2013-04-08 20:05:00,
2013-04-08 16:15:00,79.1,55.3,30.11,SSE,167,6.0,9.0,44,0.00,,,0.00,Wunderground v.1.15,2013-04-08 20:15:00,
2013-04-08 16:25:00,78.8,54.4,30.11,South,186,9.0,13.0,43,0.00,,,0.00,Wunderground v.1.15,2013-04-08 20:25:00,
2013-04-08 16:35:00,78.1,53.1,30.11,SSE,155,8.0,11.0,42,0.00,,,0.00,Wunderground v.1.15,2013-04-08 20:35:00,
2013-04-08 16:40:00,77.6,53.3,30.11,SSE,153,7.0,7.0,43,0.00,,,0.00,Wunderground v.1.15,2013-04-08 20:40:00,
2013-04-08 16:50:00,79.5,54.4,30.10,SE,142,3.0,7.0,42,0.00,,,0.00,Wunderground v.1.15,2013-04-08 20:50:00,
2013-04-08 16:55:00,79.7,55.2,30.10,SSE,161,5.0,7.0,43,0.00,,,0.00,Wunderground v.1.15,2013-04-08 20:55:00,
2013-04-08 17:00:00,78.9,53.2,30.10,SW,217,7.0,7.0,41,0.00,,,0.00,Wunderground v.1.15,2013-04-08 21:00:00,
2013-04-08 17:05:00,78.3,54.0,30.10,South,176,4.0,9.0,43,0.00,,,0.00,Wunderground v.1.15,2013-04-08 21:05:00,
2013-04-08 17:10:00,77.6,54.0,30.10,SE,141,5.0,6.0,44,0.00,,,0.00,Wunderground v.1.15,2013-04-08 21:10:00,
2013-04-08 17:15:00,77.4,53.8,30.10,South,190,7.0,7.0,44,0.00,,,0.00,Wunderground v.1.15,2013-04-08 21:15:00,
2013-04-08 17:25:00,77.6,54.6,30.10,South,177,4.0,6.0,45,0.00,,,0.00,Wunderground v.1.15,2013-04-08 21:25:00,
2013-04-08 17:35:00,78.2,55.1,30.10,SSE,154,5.0,9.0,45,0.00,,,0.00,Wunderground v.1.15,2013-04-08 21:35:00,
2013-04-08 17:45:00,78.6,55.5,30.10,South,185,6.0,7.0,45,0.00,,,0.00,Wunderground v.1.15,2013-04-08 21:45:00,
2013-04-08 17:50:00,78.7,55.0,30.10,SE,144,7.0,7.0,44,0.00,,,0.00,Wunderground v.1.15,2013-04-08 21:50:00,
2013-04-08 18:00:00,78.7,55.0,30.10,SE,143,7.0,7.0,44,0.00,,,0.00,Wunderground v.1.15,2013-04-08 22:00:00,
2013-04-08 18:05:00,79.0,54.6,30.10,SSW,198,5.0,7.0,43,0.00,,,0.00,Wunderground v.1.15,2013-04-08 22:05:00,
2013-04-08 18:15:00,79.2,55.4,30.10,SSE,158,7.0,8.0,44,0.00,,,0.00,Wunderground v.1.15,2013-04-08 22:15:00,
2013-04-08 18:20:00,79.1,55.9,30.10,SSE,167,7.0,15.0,45,0.00,,,0.00,Wunderground v.1.15,2013-04-08 22:20:00,
2013-04-08 18:30:00,78.7,55.0,30.10,SE,142,8.0,8.0,44,0.00,,,0.00,Wunderground v.1.15,2013-04-08 22:30:00,
2013-04-08 18:45:00,78.7,55.0,30.10,SSE,163,6.0,6.0,44,0.00,,,0.00,Wunderground v.1.15,2013-04-08 22:45:00,
2013-04-08 18:50:00,78.4,54.7,30.10,SSE,159,6.0,6.0,44,0.00,,,0.00,Wunderground v.1.15,2013-04-08 22:50:00,
2013-04-08 18:55:00,78.0,54.9,30.10,SSE,150,6.0,6.0,45,0.00,,,0.00,Wunderground v.1.15,2013-04-08 22:55:00,
2013-04-08 19:00:00,77.8,54.8,30.10,South,171,5.0,5.0,45,0.00,,,0.00,Wunderground v.1.15,2013-04-08 23:00:00,
2013-04-08 19:10:00,77.1,55.3,30.10,SSE,164,3.0,3.0,47,0.00,,,0.00,Wunderground v.1.15,2013-04-08 23:10:00,
2013-04-08 19:20:00,76.6,56.6,30.11,SSE,157,1.0,1.0,50,0.00,,,0.00,Wunderground v.1.15,2013-04-08 23:20:00,
2013-04-08 19:25:00,76.0,56.0,30.11,SSE,156,0.0,1.0,50,0.00,,,0.00,Wunderground v.1.15,2013-04-08 23:25:00,
2013-04-08 19:30:00,75.4,56.5,30.11,SSE,156,0.0,0.0,52,0.00,,,0.00,Wunderground v.1.15,2013-04-08 23:30:00,
2013-04-08 19:40:00,73.6,56.9,30.11,SSE,157,0.0,0.0,56,0.00,,,0.00,Wunderground v.1.15,2013-04-08 23:40:00,
2013-04-08 19:45:00,72.6,57.4,30.11,SSE,157,0.0,0.0,59,0.00,,,0.00,Wunderground v.1.15,2013-04-08 23:45:00,
2013-04-08 19:55:00,70.5,57.3,30.11,SSE,157,0.0,0.0,63,0.00,,,0.00,Wunderground v.1.15,2013-04-08 23:55:00,
2013-04-08 20:00:00,69.6,56.9,30.11,SSE,157,0.0,0.0,64,0.00,,,0.00,Wunderground v.1.15,2013-04-09 00:00:00,
2013-04-08 20:05:00,69.0,56.7,30.11,SSE,157,0.0,0.0,65,0.00,,,0.00,Wunderground v.1.15,2013-04-09 00:05:00,
2013-04-08 20:10:00,68.3,56.9,30.11,SSE,157,0.0,0.0,67,0.00,,,0.00,Wunderground v.1.15,2013-04-09 00:10:00,
2013-04-08 20:20:00,66.9,56.4,30.11,SSE,157,0.0,0.0,69,0.00,,,0.00,Wunderground v.1.15,2013-04-09 00:20:00,
2013-04-08 20:25:00,66.2,56.5,30.11,SSE,157,0.0,0.0,71,0.00,,,0.00,Wunderground v.1.15,2013-04-09 00:25:00,
2013-04-08 20:35:00,65.1,56.2,30.12,SSE,157,0.0,0.0,73,0.00,,,0.00,Wunderground v.1.15,2013-04-09 00:35:00,
2013-04-08 20:40:00,64.6,56.1,30.12,SSE,157,0.0,0.0,74,0.00,,,0.00,Wunderground v.1.15,2013-04-09 00:40:00,
2013-04-08 20:50:00,63.7,56.0,30.12,SSE,156,0.0,0.0,76,0.00,,,0.00,Wunderground v.1.15,2013-04-09 00:50:00,
2013-04-08 20:55:00,63.4,55.7,30.12,SSE,157,0.0,0.0,76,0.00,,,0.00,Wunderground v.1.15,2013-04-09 00:55:00,
2013-04-08 21:05:00,62.6,55.6,30.12,SSE,156,0.0,0.0,78,0.00,,,0.00,Wunderground v.1.15,2013-04-09 01:05:00,
2013-04-08 21:10:00,62.3,55.4,30.13,SSE,156,0.0,0.0,78,0.00,,,0.00,Wunderground v.1.15,2013-04-09 01:10:00,
2013-04-08 21:20:00,61.6,55.4,30.13,SSE,157,0.0,0.0,80,0.00,,,0.00,Wunderground v.1.15,2013-04-09 01:20:00,
2013-04-08 21:25:00,61.4,55.5,30.13,SSE,156,0.0,0.0,81,0.00,,,0.00,Wunderground v.1.15,2013-04-09 01:25:00,
2013-04-08 21:35:00,60.8,55.3,30.13,SSE,156,0.0,0.0,82,0.00,,,0.00,Wunderground v.1.15,2013-04-09 01:35:00,
2013-04-08 21:40:00,60.6,55.1,30.13,SSE,156,0.0,0.0,82,0.00,,,0.00,Wunderground v.1.15,2013-04-09 01:40:00,
2013-04-08 21:50:00,60.1,54.9,30.13,SSE,156,0.0,0.0,83,0.00,,,0.00,Wunderground v.1.15,2013-04-09 01:50:00,
2013-04-08 21:55:00,59.9,54.7,30.13,SSE,157,0.0,0.0,83,0.00,,,0.00,Wunderground v.1.15,2013-04-09 01:55:00,
2013-04-08 22:00:00,59.7,54.9,30.13,SSE,157,0.0,0.0,84,0.00,,,0.00,Wunderground v.1.15,2013-04-09 02:00:00,
2013-04-08 22:05:00,59.4,54.6,30.14,SSE,156,0.0,0.0,84,0.00,,,0.00,Wunderground v.1.15,2013-04-09 02:05:00,
2013-04-08 22:15:00,59.0,54.2,30.14,SSE,157,0.0,0.0,84,0.00,,,0.00,Wunderground v.1.15,2013-04-09 02:15:00,
2013-04-08 22:20:00,59.0,54.5,30.14,SSE,156,0.0,0.0,85,0.00,,,0.00,Wunderground v.1.15,2013-04-09 02:20:00,
2013-04-08 22:30:00,58.5,54.0,30.14,SSE,157,0.0,0.0,85,0.00,,,0.00,Wunderground v.1.15,2013-04-09 02:30:00,
2013-04-08 22:40:00,58.0,53.8,30.15,SSE,157,0.0,0.0,86,0.00,,,0.00,Wunderground v.1.15,2013-04-09 02:40:00,
2013-04-08 22:45:00,57.8,54.0,30.15,SSE,157,0.0,0.0,87,0.00,,,0.00,Wunderground v.1.15,2013-04-09 02:45:00,
2013-04-08 22:55:00,57.5,53.7,30.15,SSE,157,0.0,0.0,87,0.00,,,0.00,Wunderground v.1.15,2013-04-09 02:55:00,
2013-04-08 23:05:00,57.2,54.0,30.15,SSE,156,0.0,0.0,89,0.00,,,0.00,Wunderground v.1.15,2013-04-09 03:05:00,
2013-04-08 23:10:00,57.1,53.9,30.15,SSE,157,0.0,0.0,89,0.00,,,0.00,Wunderground v.1.15,2013-04-09 03:10:00,
2013-04-08 23:20:00,56.7,53.5,30.15,SSE,157,0.0,0.0,89,0.00,,,0.00,Wunderground v.1.15,2013-04-09 03:20:00,
2013-04-08 23:25:00,56.5,53.3,30.15,SSE,156,0.0,0.0,89,0.00,,,0.00,Wunderground v.1.15,2013-04-09 03:25:00,
2013-04-08 23:35:00,56.3,53.4,30.15,SSE,157,0.0,0.0,90,0.00,,,0.00,Wunderground v.1.15,2013-04-09 03:35:00,
2013-04-08 23:40:00,56.3,53.4,30.15,SSE,157,0.0,0.0,90,0.00,,,0.00,Wunderground v.1.15,2013-04-09 03:40:00,
2013-04-08 23:50:00,55.9,53.0,30.15,SSE,157,0.0,0.0,90,0.00,,,0.00,Wunderground v.1.15,2013-04-09 03:50:00,
2013-04-08 23:55:00,55.8,52.9,30.15,SSE,157,0.0,0.0,90,0.00,,,0.00,Wunderground v.1.15,2013-04-09 03:55:00,